Time;durP1;ratioP1;P1;durP2;ratioP2;P2;SDS_P1;SDS_P2;PMS_P1;PMS_P2;Temp;Humidity;BMP_temperature;BMP_pressure;BME280_temperature;BME280_humidity;BME280_pressure;Samples;Min_cycle;Max_cycle;Signal;HPM_P1;HPM_P2
2022/04/18 00:02:18;;;;;;;6.67;6.57;;;24.00;44.00;;;;;;5052720;28;20447;-48
2022/04/18 00:04:45;;;;;;;6.30;6.10;;;23.90;44.00;;;;;;5100571;22;20552;-43
2022/04/18 00:07:13;;;;;;;6.63;6.53;;;23.90;44.00;;;;;;5088645;28;20481;-43
2022/04/18 00:09:40;;;;;;;6.00;5.90;;;23.90;44.00;;;;;;5092937;28;20466;-43
2022/04/18 00:12:07;;;;;;;6.23;6.10;;;23.90;44.10;;;;;;5075087;28;21024;-43
2022/04/18 00:14:34;;;;;;;6.60;6.40;;;23.80;44.00;;;;;;5058517;28;20461;-43
2022/04/18 00:17:01;;;;;;;5.60;5.50;;;23.80;44.00;;;;;;5052211;28;20467;-43
2022/04/18 00:19:28;;;;;;;6.30;6.10;;;23.80;44.10;;;;;;5052220;28;20951;-43
2022/04/18 00:21:55;;;;;;;6.40;6.30;;;23.90;44.20;;;;;;5052411;28;20456;-43
2022/04/18 00:24:23;;;;;;;6.30;6.20;;;24.10;44.00;;;;;;5052209;28;20465;-43
2022/04/18 00:26:50;;;;;;;6.77;6.57;;;24.10;43.70;;;;;;5052059;28;20452;-43
2022/04/18 00:29:16;;;;;;;6.17;5.97;;;24.20;43.60;;;;;;5052140;28;20807;-43
2022/04/18 00:31:44;;;;;;;6.23;6.13;;;24.20;43.50;;;;;;5052147;28;20480;-43
2022/04/18 00:34:11;;;;;;;6.63;6.43;;;24.30;43.50;;;;;;5052195;28;20472;-43
2022/04/18 00:36:37;;;;;;;5.77;5.60;;;24.30;43.40;;;;;;5051844;28;20444;-43
2022/04/18 00:39:04;;;;;;;5.70;5.60;;;24.30;43.40;;;;;;5052125;28;20795;-43
2022/04/18 00:41:33;;;;;;;6.40;6.07;;;24.30;43.30;;;;;;5051991;28;20449;-43
2022/04/18 00:43:59;;;;;;;7.07;6.87;;;24.30;43.20;;;;;;5051847;28;20464;-43
2022/04/18 00:46:27;;;;;;;7.30;6.90;;;24.30;43.20;;;;;;5051769;28;20452;-44
2022/04/18 00:48:53;;;;;;;5.83;5.73;;;24.30;43.20;;;;;;5051710;28;20543;-43
2022/04/18 00:51:22;;;;;;;6.43;6.17;;;24.30;43.20;;;;;;5031974;28;20453;-44
2022/04/18 00:53:51;;;;;;;6.73;6.53;;;24.30;43.20;;;;;;5032090;28;20819;-43
2022/04/18 00:56:19;;;;;;;7.30;7.10;;;24.30;43.20;;;;;;5031622;28;20528;-43
2022/04/18 00:58:47;;;;;;;6.33;6.23;;;24.30;43.20;;;;;;5031834;28;20959;-43
2022/04/18 01:01:14;;;;;;;6.53;6.43;;;24.30;43.20;;;;;;5051061;28;20471;-43
2022/04/18 01:03:42;;;;;;;6.50;6.40;;;24.30;43.20;;;;;;5051252;28;20464;-43
2022/04/18 01:06:09;;;;;;;6.50;6.40;;;24.20;43.10;;;;;;5051492;28;20448;-43
2022/04/18 01:08:36;;;;;;;6.53;6.43;;;24.20;43.10;;;;;;5051615;28;20445;-43
2022/04/18 01:11:05;;;;;;;7.10;6.80;;;24.20;43.20;;;;;;5051364;28;20444;-43
2022/04/18 01:13:39;;;;;;;6.20;6.10;;;24.20;43.20;;;;;;5051433;28;20484;-43
2022/04/18 01:16:07;;;;;;;6.20;6.00;;;24.20;43.20;;;;;;5051342;28;20459;-43
2022/04/18 01:18:35;;;;;;;6.43;6.33;;;24.20;43.20;;;;;;5051711;28;20448;-43
2022/04/18 01:21:03;;;;;;;6.53;6.33;;;24.10;43.10;;;;;;5051178;28;20448;-43
2022/04/18 01:23:31;;;;;;;5.77;5.67;;;24.10;43.20;;;;;;5051709;28;20456;-43
2022/04/18 01:29:01;;;;;;;6.67;6.57;;;24.10;43.20;;;;;;5051538;28;20500;-43
2022/04/18 01:31:28;;;;;;;6.77;6.57;;;24.10;43.30;;;;;;5051150;28;20858;-43
2022/04/18 01:33:55;;;;;;;6.83;6.63;;;24.00;43.20;;;;;;5051188;28;20834;-43
2022/04/18 01:36:23;;;;;;;6.57;6.43;;;24.00;43.30;;;;;;5051142;28;20455;-43
2022/04/18 01:38:50;;;;;;;6.70;6.60;;;24.00;43.30;;;;;;5051265;28;20448;-43
2022/04/18 01:41:17;;;;;;;6.30;6.20;;;24.00;43.30;;;;;;5051313;28;20447;-43
2022/04/18 01:43:44;;;;;;;6.60;6.30;;;23.90;43.20;;;;;;5051023;28;20491;-45
2022/04/18 01:46:11;;;;;;;6.67;6.47;;;23.90;43.30;;;;;;5050958;28;20448;-43
2022/04/18 01:48:39;;;;;;;6.50;6.30;;;23.90;43.30;;;;;;5051186;28;20440;-44
2022/04/18 01:51:05;;;;;;;6.13;6.03;;;23.90;43.30;;;;;;5051187;28;20445;-44
2022/04/18 01:53:34;;;;;;;6.23;6.13;;;23.90;43.30;;;;;;5050841;28;20679;-43
2022/04/18 01:56:01;;;;;;;6.40;6.30;;;23.90;43.30;;;;;;5050500;28;20444;-46
2022/04/18 01:58:27;;;;;;;6.80;6.70;;;23.80;43.30;;;;;;5051297;28;20453;-43
2022/04/18 02:00:54;;;;;;;6.20;6.10;;;23.80;43.30;;;;;;5051160;28;20447;-44
2022/04/18 02:03:22;;;;;;;6.30;6.20;;;23.90;43.40;;;;;;5050914;28;20479;-45
2022/04/18 02:05:52;;;;;;;6.90;6.70;;;24.00;43.20;;;;;;5050727;28;20977;-43
2022/04/18 02:08:19;;;;;;;6.70;6.50;;;24.10;43.10;;;;;;5051098;28;20897;-46
2022/04/18 02:10:47;;;;;;;6.80;6.70;;;24.10;42.90;;;;;;5051114;28;20451;-44
2022/04/18 02:13:14;;;;;;;6.07;5.97;;;24.20;42.90;;;;;;5051070;28;20492;-43
2022/04/18 02:15:42;;;;;;;6.23;6.13;;;24.20;42.70;;;;;;5051134;28;20440;-46
2022/04/18 02:18:09;;;;;;;6.97;6.77;;;24.20;42.70;;;;;;5054466;28;20502;-46
2022/04/18 02:20:36;;;;;;;6.70;6.60;;;24.20;42.60;;;;;;5054752;28;20448;-43
2022/04/18 02:23:03;;;;;;;6.20;6.10;;;24.30;42.60;;;;;;5054752;28;20448;-43
2022/04/18 02:25:29;;;;;;;6.27;6.07;;;24.30;42.60;;;;;;5054437;28;20758;-44
2022/04/18 02:27:57;;;;;;;7.03;6.83;;;24.30;42.50;;;;;;5054039;28;20451;-44
2022/04/18 02:30:24;;;;;;;6.90;6.70;;;24.30;42.50;;;;;;5054549;28;20452;-44
2022/04/18 02:32:51;;;;;;;7.27;7.07;;;24.30;42.50;;;;;;5054430;28;20487;-45
2022/04/18 02:35:20;;;;;;;7.27;7.07;;;24.30;42.50;;;;;;5054311;28;20628;-47
2022/04/18 02:37:47;;;;;;;6.70;6.60;;;24.20;42.40;;;;;;5053825;28;20448;-45
2022/04/18 02:40:14;;;;;;;6.77;6.57;;;24.20;42.40;;;;;;5054328;28;20448;-48
2022/04/18 02:42:42;;;;;;;7.17;6.97;;;24.20;42.40;;;;;;5054219;28;20440;-48
2022/04/18 02:45:11;;;;;;;6.60;6.43;;;24.20;42.40;;;;;;5054505;28;20475;-45
2022/04/18 02:47:38;;;;;;;6.80;6.60;;;24.20;42.50;;;;;;5053724;28;20502;-49
2022/04/18 02:50:06;;;;;;;6.83;6.63;;;24.20;42.50;;;;;;5038850;28;20437;-46
2022/04/18 02:52:33;;;;;;;7.70;7.50;;;24.20;42.40;;;;;;5054047;28;20487;-45
2022/04/18 02:54:59;;;;;;;6.27;6.17;;;24.10;42.40;;;;;;5053953;28;20465;-48
2022/04/18 02:57:26;;;;;;;6.43;6.33;;;24.10;42.50;;;;;;5053801;28;20453;-47
2022/04/18 02:59:53;;;;;;;6.93;6.73;;;24.10;42.50;;;;;;5053815;28;20463;-45
2022/04/18 03:02:21;;;;;;;6.40;6.30;;;24.10;42.50;;;;;;5053494;28;20441;-50
2022/04/18 03:04:48;;;;;;;7.20;7.00;;;24.00;42.50;;;;;;5053736;28;20484;-45
2022/04/18 03:07:14;;;;;;;7.00;6.80;;;24.00;42.50;;;;;;5053598;28;20459;-48
2022/04/18 03:09:41;;;;;;;6.53;6.43;;;24.00;42.50;;;;;;5053775;28;20927;-45
2022/04/18 03:12:09;;;;;;;7.23;7.03;;;24.00;42.60;;;;;;5053338;28;20453;-48
2022/04/18 03:14:36;;;;;;;6.87;6.67;;;23.90;42.50;;;;;;5053792;28;20840;-48
2022/04/18 03:17:03;;;;;;;6.10;6.00;;;23.90;42.60;;;;;;5053424;28;20441;-48
2022/04/18 03:19:31;;;;;;;6.63;6.43;;;23.90;42.60;;;;;;5053606;28;20452;-45
2022/04/18 03:21:59;;;;;;;6.80;6.70;;;23.90;42.70;;;;;;5053544;28;20445;-47
2022/04/18 03:24:25;;;;;;;7.07;6.87;;;23.90;42.70;;;;;;5053230;28;20460;-46
2022/04/18 03:26:52;;;;;;;6.70;6.53;;;23.90;42.70;;;;;;5053052;28;20479;-50
2022/04/18 03:29:19;;;;;;;6.57;6.40;;;23.80;42.70;;;;;;5053423;28;20452;-48
2022/04/18 03:31:46;;;;;;;6.83;6.73;;;23.80;42.70;;;;;;5053306;28;20440;-45
2022/04/18 03:34:12;;;;;;;6.90;6.73;;;23.80;42.80;;;;;;5052860;28;20981;-46
2022/04/18 03:42:09;;;;;;;6.10;6.00;;;24.00;42.50;;;;;;5053203;28;20946;-47
2022/04/18 03:44:40;;;;;;;6.53;6.43;;;24.10;42.50;;;;;;5053035;28;20468;-47
2022/04/18 03:47:07;;;;;;;6.30;6.20;;;24.10;42.40;;;;;;5052909;28;20456;-53
2022/04/18 03:49:34;;;;;;;6.40;6.30;;;24.10;42.30;;;;;;5053086;28;20451;-46
2022/04/18 03:52:02;;;;;;;7.23;7.03;;;24.20;42.30;;;;;;5053191;28;20437;-43
2022/04/18 03:54:28;;;;;;;7.23;7.03;;;24.20;42.20;;;;;;5052544;28;20479;-45
2022/04/18 03:56:55;;;;;;;7.33;7.13;;;24.30;42.20;;;;;;5052626;28;20452;-46
2022/04/18 03:59:22;;;;;;;7.47;7.27;;;24.50;42.00;;;;;;5052732;28;20447;-43
2022/04/18 04:01:49;;;;;;;7.00;6.80;;;24.60;41.80;;;;;;5052774;28;20936;-46
2022/04/18 04:04:15;;;;;;;7.40;7.20;;;24.60;41.60;;;;;;5052469;28;21020;-45
2022/04/18 04:06:42;;;;;;;6.90;6.80;;;24.70;41.50;;;;;;5052244;28;20453;-45
2022/04/18 04:09:10;;;;;;;6.70;6.60;;;24.70;41.40;;;;;;5052623;28;20506;-45
2022/04/18 04:11:37;;;;;;;6.73;6.63;;;24.70;41.40;;;;;;5052513;28;20452;-45
2022/04/18 04:14:04;;;;;;;7.00;6.80;;;24.70;41.40;;;;;;5052484;28;20484;-45
2022/04/18 04:16:31;;;;;;;7.33;7.13;;;24.80;41.50;;;;;;5052489;28;20785;-44
2022/04/18 04:18:58;;;;;;;7.40;7.20;;;24.80;41.60;;;;;;5052192;28;20872;-45
2022/04/18 04:21:24;;;;;;;7.13;6.97;;;24.80;41.70;;;;;;5052321;28;20531;-47
2022/04/18 04:23:51;;;;;;;6.70;6.60;;;24.80;41.70;;;;;;5052288;28;20483;-45
2022/04/18 04:26:19;;;;;;;7.10;6.90;;;24.80;41.80;;;;;;5052014;28;20451;-45
2022/04/18 04:28:46;;;;;;;7.23;7.03;;;24.80;41.80;;;;;;5052287;28;20447;-45
2022/04/18 04:31:13;;;;;;;6.50;6.40;;;24.70;41.70;;;;;;5051953;28;20456;-44
2022/04/18 04:33:40;;;;;;;7.30;7.10;;;24.70;41.70;;;;;;5052065;28;20487;-45
2022/04/18 04:36:06;;;;;;;7.40;7.20;;;24.70;41.70;;;;;;5051737;28;20808;-47
2022/04/18 04:38:33;;;;;;;7.37;7.17;;;24.80;41.80;;;;;;5051459;28;20448;-45
2022/04/18 04:41:00;;;;;;;7.13;7.03;;;24.90;41.70;;;;;;5051978;28;20455;-45
2022/04/18 04:43:29;;;;;;;8.10;7.90;;;25.00;41.60;;;;;;5051666;28;20987;-44
2022/04/18 04:45:56;;;;;;;7.47;7.20;;;24.90;41.40;;;;;;5051756;28;20444;-44
2022/04/18 04:48:23;;;;;;;8.17;7.87;;;25.00;41.40;;;;;;5051871;28;20444;-45
2022/04/18 04:50:49;;;;;;;7.00;6.90;;;25.00;41.30;;;;;;5052028;28;20459;-45
2022/04/18 04:53:16;;;;;;;7.60;7.40;;;25.10;41.30;;;;;;5051664;28;20499;-47
2022/04/18 04:55:43;;;;;;;7.13;7.03;;;25.00;41.20;;;;;;5051296;28;20790;-47
2022/04/18 04:58:10;;;;;;;7.40;7.20;;;25.10;41.20;;;;;;5051731;28;20448;-44
2022/04/18 05:00:39;;;;;;;6.70;6.60;;;25.10;41.20;;;;;;5051725;28;20937;-46
2022/04/18 05:03:07;;;;;;;6.30;6.20;;;25.10;41.10;;;;;;5051274;28;20452;-47
2022/04/18 05:05:34;;;;;;;6.97;6.77;;;25.10;41.10;;;;;;5051516;28;20448;-46
2022/04/18 05:08:01;;;;;;;7.90;7.70;;;25.10;41.20;;;;;;5051511;28;20456;-48
2022/04/18 05:10:28;;;;;;;7.30;7.10;;;25.10;41.40;;;;;;5051612;28;20445;-48
2022/04/18 05:12:54;;;;;;;7.93;7.70;;;25.10;41.30;;;;;;5051089;28;20459;-47
2022/04/18 05:15:21;;;;;;;7.43;7.23;;;25.00;41.40;;;;;;5051363;28;20459;-46
2022/04/18 05:17:49;;;;;;;7.27;7.17;;;25.00;41.40;;;;;;5051490;28;20836;-51
2022/04/18 05:20:16;;;;;;;6.83;6.70;;;25.10;41.40;;;;;;5051492;28;20460;-51
2022/04/18 05:22:43;;;;;;;6.60;6.50;;;25.20;41.20;;;;;;5051169;28;20451;-48
2022/04/18 05:25:10;;;;;;;7.67;7.47;;;25.30;41.00;;;;;;5051439;28;20468;-46
2022/04/18 05:27:37;;;;;;;7.37;7.17;;;25.30;41.00;;;;;;5051174;28;20493;-48
2022/04/18 05:30:05;;;;;;;6.93;6.83;;;25.40;41.00;;;;;;5051360;28;20502;-48
2022/04/18 05:32:32;;;;;;;6.90;6.80;;;25.40;41.00;;;;;;5051214;28;20489;-46
2022/04/18 05:35:00;;;;;;;7.40;7.20;;;25.40;41.00;;;;;;5031423;28;20485;-46
2022/04/18 05:37:27;;;;;;;7.33;7.13;;;25.40;41.10;;;;;;5031249;28;20447;-46
2022/04/18 05:39:54;;;;;;;7.10;7.00;;;25.40;41.00;;;;;;5031491;28;20511;-48
2022/04/18 05:42:23;;;;;;;7.60;7.40;;;25.40;41.00;;;;;;5044936;28;20977;-46
2022/04/18 05:44:50;;;;;;;7.43;7.23;;;25.40;41.00;;;;;;5051220;28;20518;-47
2022/04/18 05:47:17;;;;;;;8.63;8.33;;;25.40;41.00;;;;;;5051079;28;20444;-47
2022/04/18 05:49:44;;;;;;;7.90;7.60;;;25.30;41.00;;;;;;5051165;28;20444;-47
2022/04/18 05:52:13;;;;;;;7.40;7.20;;;25.30;41.20;;;;;;5053734;28;20448;-50
2022/04/18 05:54:40;;;;;;;7.00;6.80;;;25.40;41.30;;;;;;5054907;28;20484;-48
2022/04/18 05:57:07;;;;;;;7.60;7.40;;;25.50;41.20;;;;;;5054934;28;20444;-45
2022/04/18 05:59:34;;;;;;;7.57;7.43;;;25.50;41.00;;;;;;5055049;28;20982;-45
2022/04/18 06:02:01;;;;;;;6.73;6.63;;;25.60;41.00;;;;;;5055042;28;20444;-47
2022/04/18 06:04:28;;;;;;;7.50;7.30;;;25.60;40.90;;;;;;5081285;22;20869;-45
2022/04/18 06:06:55;;;;;;;7.27;7.07;;;25.70;40.90;;;;;;5095103;28;20449;-45
2022/04/18 06:09:23;;;;;;;7.10;6.90;;;25.70;40.90;;;;;;5095154;28;20438;-46
2022/04/18 06:11:49;;;;;;;7.53;7.40;;;25.70;40.90;;;;;;5095297;28;20469;-46
2022/04/18 06:14:16;;;;;;;7.20;7.00;;;25.60;40.90;;;;;;5094913;28;20490;-47
2022/04/18 06:16:43;;;;;;;8.57;8.37;;;25.60;40.90;;;;;;5080903;28;20447;-46
2022/04/18 06:19:10;;;;;;;6.87;6.77;;;25.60;40.90;;;;;;5074774;28;20450;-47
2022/04/18 06:21:36;;;;;;;7.37;7.17;;;25.60;41.00;;;;;;5074747;28;20446;-47
2022/04/18 06:24:03;;;;;;;7.57;7.37;;;25.60;41.00;;;;;;5074496;28;20462;-46
2022/04/18 06:26:31;;;;;;;7.93;7.73;;;25.60;41.10;;;;;;5074532;28;20450;-45
2022/04/18 06:28:58;;;;;;;8.60;8.40;;;25.60;41.10;;;;;;5074451;28;20450;-47
2022/04/18 06:31:25;;;;;;;9.20;9.00;;;25.50;41.00;;;;;;5074584;28;20459;-47
2022/04/18 06:33:52;;;;;;;8.10;7.90;;;25.50;41.10;;;;;;5074136;28;20487;-49
2022/04/18 06:36:19;;;;;;;8.40;8.20;;;25.50;41.20;;;;;;5074405;28;20451;-50
2022/04/18 06:38:45;;;;;;;8.30;8.00;;;25.60;41.10;;;;;;5074444;28;20800;-49
2022/04/18 06:41:12;;;;;;;8.87;8.57;;;25.60;41.00;;;;;;5074108;28;20446;-47
2022/04/18 06:43:40;;;;;;;8.10;7.90;;;25.60;40.90;;;;;;5074138;28;20464;-47
2022/04/18 06:46:07;;;;;;;8.00;7.60;;;25.60;41.20;;;;;;5074153;28;20937;-48
2022/04/18 06:48:34;;;;;;;7.50;7.30;;;25.60;41.10;;;;;;5073785;28;20447;-48
2022/04/18 06:51:01;;;;;;;7.57;7.37;;;25.50;41.20;;;;;;5074102;28;20469;-50
2022/04/18 06:53:28;;;;;;;8.83;8.63;;;25.50;41.30;;;;;;5073865;28;20458;-50
2022/04/18 06:58:52;;;;;;;8.00;7.60;;;25.40;41.40;;;;;;4990529;28;20533;-48
2022/04/18 07:01:18;;;;;;;7.77;7.57;;;25.30;41.60;;;;;;5054142;28;20442;-49
2022/04/18 07:03:45;;;;;;;8.13;7.93;;;25.30;41.60;;;;;;5073410;28;20467;-48
2022/04/18 07:06:12;;;;;;;7.87;7.67;;;25.30;41.70;;;;;;5073654;28;20522;-47
2022/04/18 07:08:39;;;;;;;8.10;7.90;;;25.20;41.70;;;;;;5073760;28;20451;-47
2022/04/18 07:11:06;;;;;;;7.63;7.43;;;25.20;41.70;;;;;;5073764;28;20469;-46
2022/04/18 07:13:32;;;;;;;7.13;6.93;;;25.20;41.80;;;;;;5073649;28;20816;-46
2022/04/18 07:16:01;;;;;;;7.80;7.60;;;25.20;41.90;;;;;;5073531;28;20446;-49
2022/04/18 07:18:28;;;;;;;7.90;7.70;;;25.10;41.90;;;;;;5053810;28;20441;-48
2022/04/18 07:20:55;;;;;;;7.63;7.43;;;25.10;42.00;;;;;;5053501;28;20560;-47
2022/04/18 07:23:23;;;;;;;7.47;7.27;;;25.10;42.00;;;;;;5053437;28;20498;-47
2022/04/18 07:25:54;;;;;;;7.80;7.60;;;25.00;42.10;;;;;;5053473;28;20452;-47
2022/04/18 07:28:21;;;;;;;7.30;7.10;;;25.00;42.20;;;;;;5054472;28;20444;-48
2022/04/18 07:30:47;;;;;;;8.13;7.93;;;25.00;42.30;;;;;;5073447;28;20811;-47
2022/04/18 07:33:15;;;;;;;7.73;7.43;;;25.00;42.40;;;;;;5073319;28;20448;-48
2022/04/18 07:35:42;;;;;;;6.90;6.70;;;24.90;42.40;;;;;;5053398;28;20547;-47
2022/04/18 07:40:54;;;;;;;7.77;7.57;;;24.90;42.50;;;;;;5055992;28;20841;-48
2022/04/18 07:43:21;;;;;;;7.70;7.50;;;24.90;42.50;;;;;;5073083;28;20450;-47
2022/04/18 07:45:48;;;;;;;7.50;7.30;;;24.90;42.60;;;;;;5072999;28;20505;-47
2022/04/18 07:48:16;;;;;;;7.63;7.43;;;24.90;42.70;;;;;;5070005;28;20451;-47
2022/04/18 07:53:27;;;;;;;7.87;7.67;;;24.80;42.60;;;;;;5072938;28;20477;-47
2022/04/18 07:55:54;;;;;;;7.70;7.50;;;24.80;42.60;;;;;;5072869;28;20796;-47
2022/04/18 07:58:20;;;;;;;8.10;7.90;;;24.80;42.70;;;;;;5072871;28;20443;-49
2022/04/18 08:00:47;;;;;;;7.80;7.60;;;24.70;42.60;;;;;;5072798;28;20448;-47
2022/04/18 08:03:16;;;;;;;6.90;6.80;;;24.70;42.70;;;;;;5072789;28;20462;-49
2022/04/18 08:05:43;;;;;;;8.20;8.00;;;24.70;42.80;;;;;;5072359;28;20452;-47
2022/04/18 08:08:09;;;;;;;7.70;7.50;;;24.70;42.80;;;;;;5072542;28;20930;-48
2022/04/18 08:10:37;;;;;;;7.20;7.07;;;24.60;42.90;;;;;;5072696;28;20440;-47
2022/04/18 08:13:04;;;;;;;7.67;7.47;;;24.60;42.90;;;;;;5072151;28;20447;-47
2022/04/18 08:15:31;;;;;;;7.73;7.53;;;24.60;42.90;;;;;;5071987;28;20541;-47
2022/04/18 08:17:58;;;;;;;8.57;8.37;;;24.60;43.00;;;;;;5072514;28;20826;-48
2022/04/18 08:20:26;;;;;;;8.17;7.97;;;24.50;43.00;;;;;;5072434;28;20444;-46
2022/04/18 08:22:53;;;;;;;7.40;7.20;;;24.50;43.10;;;;;;5072445;28;20961;-47
2022/04/18 08:25:20;;;;;;;7.30;7.10;;;24.50;43.20;;;;;;5070763;28;20461;-47
2022/04/18 08:27:46;;;;;;;8.07;7.87;;;24.50;43.10;;;;;;5060880;28;20930;-48
2022/04/18 08:30:13;;;;;;;7.53;7.33;;;24.50;43.20;;;;;;5072253;28;20450;-50
2022/04/18 08:32:40;;;;;;;7.50;7.30;;;24.60;43.20;;;;;;5057616;28;20444;-47
2022/04/18 08:35:08;;;;;;;7.37;7.17;;;24.60;43.10;;;;;;5052025;28;20959;-49
2022/04/18 08:37:36;;;;;;;8.00;7.80;;;24.70;43.10;;;;;;5052037;28;20456;-50
2022/04/18 08:40:04;;;;;;;8.30;8.10;;;24.70;43.10;;;;;;5052056;28;20456;-48
2022/04/18 08:42:36;;;;;;;8.00;7.80;;;24.70;43.10;;;;;;5063645;28;20824;-48
2022/04/18 08:45:05;;;;;;;7.60;7.40;;;24.80;43.10;;;;;;5071934;28;20467;-47
2022/04/18 08:53:03;;;;;;;7.83;7.63;;;24.90;43.20;;;;;;5069042;28;20477;-51
2022/04/18 08:55:31;;;;;;;7.77;7.57;;;24.90;43.20;;;;;;5051524;28;20484;-47
2022/04/18 08:57:58;;;;;;;7.70;7.50;;;24.90;43.30;;;;;;5051788;28;20868;-51
2022/04/18 09:00:25;;;;;;;7.60;7.40;;;24.90;43.20;;;;;;5051765;28;20457;-48
2022/04/18 09:02:51;;;;;;;6.97;6.87;;;24.90;43.20;;;;;;5051654;28;20819;-48
2022/04/18 09:05:18;;;;;;;6.60;6.50;;;24.90;43.30;;;;;;5055328;28;20459;-51
2022/04/18 09:07:57;;;;;;;7.10;6.90;;;24.90;43.80;;;;;;5071481;28;20447;-48
2022/04/18 09:10:25;;;;;;;6.77;6.67;;;24.90;43.30;;;;;;5071499;28;20443;-48
2022/04/18 09:12:52;;;;;;;7.80;7.50;;;24.90;43.30;;;;;;5071643;28;20447;-51
2022/04/18 09:15:31;;;;;;;6.63;6.50;;;24.90;43.30;;;;;;5071239;28;20509;-48
2022/04/18 09:18:07;;;;;;;7.53;7.33;;;24.90;43.30;;;;;;5071370;28;20497;-50
2022/04/18 09:20:42;;;;;;;7.73;7.53;;;24.90;43.30;;;;;;5071564;28;20549;-50
2022/04/18 09:23:29;;;;;;;7.00;6.90;;;24.80;43.40;;;;;;5071106;28;20821;-50
2022/04/18 09:26:00;;;;;;;8.40;8.10;;;24.80;43.40;;;;;;5067501;28;20443;-50
2022/04/18 09:28:30;;;;;;;7.30;7.10;;;24.80;43.60;;;;;;5070957;28;20505;-52
2022/04/18 09:31:02;;;;;;;7.03;6.83;;;24.80;43.30;;;;;;5071195;28;20447;-50
2022/04/18 09:33:30;;;;;;;9.10;8.80;;;24.80;41.60;;;;;;5071152;28;20449;-51
2022/04/18 09:36:08;;;;;;;9.63;9.30;;;24.80;40.60;;;;;;5070912;28;20475;-51
2022/04/18 09:38:39;;;;;;;8.73;8.50;;;24.80;40.70;;;;;;5070840;28;20546;-52
2022/04/18 09:41:08;;;;;;;9.03;8.70;;;24.80;40.20;;;;;;5052191;28;20448;-49
2022/04/18 09:43:43;;;;;;;9.30;9.00;;;24.80;39.80;;;;;;5070869;28;20450;-50
2022/04/18 09:46:11;;;;;;;9.93;9.63;;;24.80;39.50;;;;;;5071040;28;20442;-54
2022/04/18 09:48:38;;;;;;;10.07;9.73;;;24.70;39.10;;;;;;5070873;28;20454;-51
2022/04/18 09:51:12;;;;;;;9.97;9.67;;;24.70;39.00;;;;;;5071097;28;20806;-51
2022/04/18 09:53:41;;;;;;;9.47;9.10;;;24.70;38.70;;;;;;5051257;28;20636;-52
2022/04/18 09:56:14;;;;;;;9.37;9.07;;;24.70;38.80;;;;;;5068878;28;20486;-55
2022/04/18 09:58:41;;;;;;;8.27;8.00;;;24.70;38.80;;;;;;5071244;28;20450;-52
2022/04/18 10:01:08;;;;;;;9.70;9.30;;;24.80;38.40;;;;;;5070950;28;20969;-50
2022/04/18 10:03:36;;;;;;;9.90;9.40;;;24.80;38.20;;;;;;5070699;28;21021;-52
2022/04/18 10:06:04;;;;;;;9.20;8.90;;;24.80;38.10;;;;;;5070815;28;20452;-50
2022/04/18 10:08:31;;;;;;;10.00;9.70;;;24.80;37.80;;;;;;5070536;28;20443;-50
2022/04/18 10:11:00;;;;;;;9.30;9.10;;;24.90;38.30;;;;;;5070797;28;20969;-50
2022/04/18 10:13:30;;;;;;;10.53;10.23;;;24.90;37.60;;;;;;5054572;28;20450;-49
2022/04/18 10:15:59;;;;;;;9.33;9.03;;;24.90;37.60;;;;;;5070474;28;20490;-51
2022/04/18 10:18:27;;;;;;;8.60;8.40;;;24.90;37.50;;;;;;5070656;28;20478;-51
2022/04/18 10:21:14;;;;;;;9.03;8.83;;;24.90;37.20;;;;;;5070683;28;20448;-50
2022/04/18 10:24:03;;;;;;;9.10;8.80;;;24.90;36.90;;;;;;5070220;28;20467;-50
2022/04/18 10:27:08;;;;;;;9.33;9.00;;;25.00;36.70;;;;;;5070121;28;20962;-50
2022/04/18 10:29:39;;;;;;;10.23;9.93;;;25.00;36.40;;;;;;5070927;28;20454;-52
2022/04/18 10:32:09;;;;;;;9.23;9.00;;;25.00;35.90;;;;;;5070469;28;20439;-51
2022/04/18 10:34:36;;;;;;;9.87;9.57;;;25.10;36.00;;;;;;5069727;28;20463;-51
2022/04/18 10:37:05;;;;;;;9.97;9.67;;;25.10;35.80;;;;;;5071053;28;21028;-47
2022/04/18 10:39:38;;;;;;;9.97;9.67;;;25.10;35.70;;;;;;5074130;28;20529;-49
2022/04/18 10:42:22;;;;;;;10.07;9.77;;;25.00;35.70;;;;;;5073848;28;20812;-47
2022/04/18 10:45:01;;;;;;;11.67;11.37;;;25.00;35.60;;;;;;5074150;28;20459;-48
2022/04/18 10:48:01;;;;;;;9.13;8.90;;;25.10;36.50;;;;;;5073820;28;20443;-48
2022/04/18 10:50:29;;;;;;;9.10;8.80;;;25.00;36.20;;;;;;5074159;28;20447;-48
2022/04/18 10:53:33;;;;;;;9.60;9.23;;;25.10;36.00;;;;;;5073905;28;21012;-47
2022/04/18 10:56:12;;;;;;;9.23;8.93;;;25.00;35.10;;;;;;5047176;28;20487;-46
2022/04/18 10:58:43;;;;;;;8.40;8.13;;;25.00;35.10;;;;;;5073356;28;20446;-49
2022/04/18 11:01:12;;;;;;;7.00;6.80;;;25.00;35.90;;;;;;5073962;28;20448;-49
2022/04/18 11:03:57;;;;;;;8.40;8.10;;;25.00;35.80;;;;;;5073538;28;20471;-47
2022/04/18 11:06:44;;;;;;;8.37;8.17;;;24.90;35.20;;;;;;5073541;28;20938;-45
2022/04/18 11:09:13;;;;;;;8.00;7.80;;;24.80;33.90;;;;;;5073709;28;20522;-47
2022/04/18 11:11:44;;;;;;;8.13;7.83;;;24.70;34.00;;;;;;5073790;28;20543;-46
2022/04/18 11:14:19;;;;;;;8.23;7.93;;;24.70;34.40;;;;;;5073357;28;20475;-46
2022/04/18 11:16:54;;;;;;;8.77;8.47;;;24.60;34.10;;;;;;5059091;28;20474;-47
2022/04/18 11:19:24;;;;;;;7.70;7.50;;;24.40;32.00;;;;;;5073401;28;20442;-46
2022/04/18 11:22:21;;;;;;;8.33;8.03;;;24.50;33.00;;;;;;5073301;28;20814;-46
2022/04/18 11:25:02;;;;;;;7.47;7.27;;;24.50;32.60;;;;;;5072679;28;20491;-48
2022/04/18 11:27:34;;;;;;;7.40;7.20;;;24.30;31.70;;;;;;5072809;28;20496;-47
2022/04/18 11:30:04;;;;;;;8.83;8.63;;;24.20;31.30;;;;;;5073529;28;20440;-47
2022/04/18 11:32:34;;;;;;;9.43;9.13;;;24.20;31.50;;;;;;5073218;28;20942;-48
2022/04/18 11:35:02;;;;;;;7.70;7.50;;;24.20;31.80;;;;;;5073249;28;20484;-47
2022/04/18 11:37:31;;;;;;;8.10;7.90;;;24.30;33.20;;;;;;5071830;28;20443;-49
2022/04/18 11:40:00;;;;;;;7.80;7.60;;;24.20;32.50;;;;;;5073308;28;20479;-47
2022/04/18 11:42:29;;;;;;;8.40;8.10;;;24.20;32.10;;;;;;5073080;28;20439;-47
2022/04/18 11:44:57;;;;;;;7.80;7.60;;;24.20;32.60;;;;;;5070848;28;20575;-48
2022/04/18 11:47:27;;;;;;;8.23;7.63;;;24.20;34.10;;;;;;5072273;28;20509;-46
2022/04/18 11:49:58;;;;;;;8.33;8.03;;;24.20;34.60;;;;;;5073038;28;20501;-47
2022/04/18 11:52:27;;;;;;;8.77;8.37;;;24.20;34.30;;;;;;5073090;28;20546;-45
2022/04/18 11:55:00;;;;;;;7.67;7.47;;;24.20;34.20;;;;;;5072775;28;20474;-48
2022/04/18 11:57:28;;;;;;;7.70;7.50;;;24.20;34.30;;;;;;5072807;28;20444;-47
2022/04/18 11:59:56;;;;;;;8.83;8.53;;;24.20;34.20;;;;;;5072498;28;20973;-49
2022/04/18 12:08:01;;;;;;;9.60;9.20;;;24.50;33.70;;;;;;5057565;28;20477;-50
2022/04/18 12:10:31;;;;;;;8.50;8.30;;;24.50;32.60;;;;;;5052224;28;21016;-51
2022/04/18 12:12:58;;;;;;;9.23;8.93;;;24.60;32.00;;;;;;5052147;28;20448;-49
2022/04/18 12:15:26;;;;;;;8.50;8.20;;;24.60;32.00;;;;;;5066826;28;20487;-50
2022/04/18 12:17:55;;;;;;;8.30;8.10;;;24.70;31.60;;;;;;5072529;28;20455;-47
2022/04/18 12:20:26;;;;;;;9.30;8.90;;;24.70;31.50;;;;;;5072463;28;20455;-51
2022/04/18 12:22:58;;;;;;;8.87;8.43;;;24.70;32.50;;;;;;5072462;28;20487;-47
2022/04/18 12:25:27;;;;;;;8.57;8.07;;;24.70;32.90;;;;;;5072075;28;20562;-51
2022/04/18 12:27:54;;;;;;;8.43;8.07;;;24.70;32.80;;;;;;5071993;28;20447;-47
2022/04/18 12:30:21;;;;;;;9.57;9.20;;;24.70;32.30;;;;;;5072309;28;20451;-49
2022/04/18 12:32:48;;;;;;;9.07;8.53;;;24.80;33.50;;;;;;5072179;28;20450;-50
2022/04/18 12:35:17;;;;;;;9.77;8.87;;;24.90;34.80;;;;;;5071939;28;20463;-46
2022/04/18 12:37:49;;;;;;;9.90;9.00;;;25.00;36.30;;;;;;5071723;28;20501;-47
2022/04/18 12:40:17;;;;;;;9.30;8.67;;;24.90;37.70;;;;;;5072063;28;20454;-49
2022/04/18 12:42:51;;;;;;;9.20;8.80;;;24.90;35.90;;;;;;5071851;28;20525;-46
2022/04/18 12:45:18;;;;;;;10.37;9.47;;;24.80;37.40;;;;;;5071684;28;20494;-47
2022/04/18 12:47:45;;;;;;;9.93;9.30;;;24.90;37.90;;;;;;5071902;28;20832;-52
2022/04/18 12:50:14;;;;;;;9.53;9.00;;;24.90;39.00;;;;;;5071599;28;20447;-47
2022/04/18 12:52:52;;;;;;;9.70;9.20;;;24.90;38.90;;;;;;5071981;28;20452;-48
2022/04/18 12:55:26;;;;;;;9.33;8.73;;;24.90;39.00;;;;;;5071665;28;20498;-47
2022/04/18 12:57:54;;;;;;;10.20;9.47;;;24.80;38.00;;;;;;5071657;28;20564;-46
2022/04/18 13:00:22;;;;;;;9.13;8.53;;;24.80;38.10;;;;;;5071279;28;20517;-48
2022/04/18 13:02:59;;;;;;;9.57;8.90;;;24.80;37.20;;;;;;5071704;28;20810;-45
2022/04/18 13:05:28;;;;;;;10.07;9.47;;;24.70;37.10;;;;;;5071396;28;20478;-48
2022/04/18 13:08:02;;;;;;;10.53;9.73;;;24.80;38.00;;;;;;5071764;28;20450;-49
2022/04/18 13:10:30;;;;;;;8.77;8.33;;;24.80;37.80;;;;;;5071448;28;20447;-49
2022/04/18 13:13:05;;;;;;;11.50;10.50;;;24.80;37.80;;;;;;5071387;28;20444;-47
2022/04/18 13:15:32;;;;;;;10.00;9.30;;;24.90;38.10;;;;;;5070960;28;20479;-47
2022/04/18 13:18:03;;;;;;;9.97;9.53;;;24.90;38.30;;;;;;5071698;28;20451;-46
2022/04/18 13:20:30;;;;;;;8.57;8.07;;;24.90;38.00;;;;;;5071590;28;20451;-50
2022/04/18 13:22:58;;;;;;;9.00;8.30;;;24.80;36.20;;;;;;5071507;28;20439;-47